Active alerts


No alerts


weather webcam more information weather webcam


Thunder radar more information blitzortung!


Rain radar more information rain snow radar


Visit our other weather sites:

Template documentation
and downloads

And another site


Nearby METAR Reports

   
EBBR - Brussels International Airport, Belgium
Distance from station: W 9 mi
Updated: Jan 28 2020 2:20 pm
Partly Cloudy  
Partly Cloudy  
   Wind: SW 13.8 mph
Wind: SW 13.8 mph
Temperature: 37.4°F
Wind Chill: 28.4°F
Dew Point: 33.8°F
Humidity: 87%
Barometer: 29.53 inHg
Clouds: Partly Cloudy
Visibility: More than 6 mi
Cloud details: Partly Cloudy 1300 ft
EBBR 282020Z 22012KT 9999 SCT013 03/01 Q1000 TEMPO 4000 SHRA
EBBE - Beauvechain (Bevekom), Belgium
Distance from station: SSE 10 mi
Updated: Jan 28 2020 2:25 pm
Mostly Cloudy  
Mostly Cloudy  
   Wind: WSW 10.4 mph
Wind: WSW 10.4 mph
Temperature: 37.4°F
Wind Chill: 30.2°F
Dew Point: 35.6°F
Humidity: 93%
Barometer: 29.53 inHg
Clouds: Mostly Cloudy
Visibility: More than 6 mi
Cloud details: Few Clouds 1100 ft,
Mostly Cloudy 2500 ft,
Mostly Cloudy 4500 ft
EBBE 282025Z 24009KT 9999 FEW011 BKN025 BKN045 03/02 Q1000 BLU BLU TEMPO GRN
EBDT - Schaffen, Belgium
Distance from station: ENE 18 mi
Updated: Jan 28 2020 2:25 pm
Overcast  
Overcast  
   Wind: SW 11.5 mph<br />Gust to 11.5 mph
Wind: SW 11.5 mph
Gust to 11.5 mph
Temperature: 41°F
Wind Chill: 33.8°F
Dew Point: 33.8°F
Humidity: 76%
Barometer: 29.53 inHg
Clouds: Overcast
Visibility: More than 6 mi
Cloud details: Partly Cloudy 2100 ft,
Mostly Cloudy 2500 ft,
Overcast 10000 ft
EBDT 282025Z AUTO 22010G23KT 9999 SCT021/// BKN025/// OVC100/// 05/01 Q1000 WHT
EBAW - Antwerp/Deurne, Belgium
Distance from station: NNW 23 mi
Updated: Jan 28 2020 2:20 pm
Mostly Cloudy  
Mostly Cloudy  
   Wind: WSW 13.8 mph
Wind: WSW 13.8 mph
Temperature: 41°F
Wind Chill: 33.8°F
Dew Point: 33.8°F
Humidity: 76%
Barometer: 29.53 inHg
Clouds: Mostly Cloudy
Visibility: More than 6 mi
Cloud details: Few Clouds 1800 ft,
Mostly Cloudy 2900 ft
EBAW 282020Z 24012KT 210V270 9999 FEW018 BKN029 05/01 Q1000 NOSIG
EBCI - Charleroi/Gosselies, Belgium
Distance from station: SSW 32 mi
Updated: Jan 28 2020 2:20 pm
Light Showers, Rain, Mostly Cloudy  
Light Showers, Rain, Mostly Cloudy  
   Wind: SW 17.3 mph
Wind: SW 17.3 mph
Temperature: 37.4°F
Wind Chill: 28.4°F
Dew Point: 35.6°F
Humidity: 93%
Barometer: 29.56 inHg
Clouds: Mostly Cloudy
Visibility: 6 mi
Cloud details: Few Clouds 1200 ft,
Partly Cloudy 1700 ft,
Mostly Cloudy 2000 ft
EBCI 282020Z 23015KT 9000 -SHRA FEW012 SCT017TCU BKN020 03/02 Q1001 TEMPO 22015G25KT 3000 SHRASN BKN012
EBLG - Bierset/Liege, Belgium
Distance from station: ESE 38 mi
Updated: Jan 28 2020 2:20 pm
Light Showers, Rain, Mostly Cloudy  
Light Showers, Rain, Mostly Cloudy  
   Wind: SW 19.6 mph
Wind: SW 19.6 mph
Temperature: 37.4°F
Wind Chill: 26.6°F
Dew Point: 33.8°F
Humidity: 87%
Barometer: 29.53 inHg
Clouds: Mostly Cloudy
Visibility: More than 6 mi
Cloud details: Few Clouds 1300 ft,
Mostly Cloudy 1700 ft
EBLG 282020Z 22017KT 9999 -SHRA FEW013 BKN017 03/01 Q1000 TEMPO 1500 SHSNRA BKN004

Script developed by  Saratoga-weather.org Adapted for the template by  Weerstation Leuven

You find our weather info also at:

Weather Underground

Midwestern Weather Network

Citizen Weather Observer Program (CWOP)

HAMweather, WeatherForYou, PWS Weather

Equipment we use:

Weather-station
Davis VP2

Weather-program
Cumulus

Davis VP2

Cumulus